Flight Track Log - Related Links

Times and Time Zones

All times are in EST time to prevent confusion due to time zone crossing. See the N1565T flight status page for this flight to view local times or setup timezone preferences in your user account.

Time Position Orientation Groundspeed Altitude Reporting Facility
EST Latitude Longitude Course Direction KTS MPH feet Rate Location/Type
Wed 12:10:09 PM 32.4036 -82.4350 186° South 181 208 5,800  Level Jacksonville Center
Wed 12:11:09 PM 32.3683 -82.4547 205° Southwest 156 180 6,000 100 Climbing Jacksonville Center
Wed 12:12:00 PM 32.3460 -82.2608 154° Southeast  Level Estimated
Wed 12:12:09 PM 32.3286 -82.4769 205° Southwest 151 174 6,000  Level Jacksonville Center
Wed 12:13:00 PM 32.2905 -82.2674 186° South  Level FlightAware Approximate
Wed 12:13:09 PM 32.2869 -82.5019 207° Southwest 156 180 6,000  Level Jacksonville Center
Wed 12:14:00 PM 32.2350 -82.2740 186° South  Level FlightAware Approximate
Wed 12:14:09 PM 32.2453 -82.5242 204° Southwest 161 185 6,000  Level Jacksonville Center
Wed 12:15:09 PM 32.2036 -82.5489 207° Southwest 161 185 6,000  Level Jacksonville Center
Wed 12:16:09 PM 32.1619 -82.5783 211° Southwest 166 191 6,000 50 Level Jacksonville Center
Wed 12:17:09 PM 32.1225 -82.6056 210° Southwest 172 198 6,100 50 Climbing Jacksonville Center
Wed 12:18:09 PM 32.0786 -82.6278 203° Southwest 172 198 6,100  Level Jacksonville Center
Wed 12:19:09 PM 32.0347 -82.6008 153° Southeast 157 181 6,100  Level Jacksonville Center
Wed 12:20:09 PM 31.9867 -82.5667 149° Southeast 170 196 6,100  Level Jacksonville Center
Wed 12:21:09 PM 31.9447 -82.5375 149° Southeast 175 201 6,100  Level Jacksonville Center
Wed 12:22:09 PM 31.8986 -82.5058 150° Southeast 183 211 6,100  Level Jacksonville Center
Wed 12:23:09 PM 31.8547 -82.4767 151° Southeast 183 211 6,100  Level Jacksonville Center
Wed 12:24:09 PM 31.8089 -82.4525 156° South 178 205 6,100  Level Jacksonville Center
Wed 12:25:09 PM 31.7647 -82.4283 155° Southeast 178 205 6,100  Level Jacksonville Center
Wed 12:26:09 PM 31.7167 -82.4017 155° Southeast 178 205 6,100  Level Jacksonville Center
Wed 12:27:09 PM 31.6769 -82.3703 146° Southeast 178 205 6,100  Level Jacksonville Center
Wed 12:28:09 PM 31.6328 -82.3386 149° Southeast 183 211 6,100  Level Jacksonville Center
Wed 12:29:09 PM 31.5911 -82.3072 147° Southeast 183 211 6,100  Level Jacksonville Center
Wed 12:30:09 PM 31.5450 -82.2733 148° Southeast 183 211 6,100  Level Jacksonville Center
Wed 12:31:09 PM 31.5031 -82.2394 145° Southeast 183 211 6,100  Level Jacksonville Center
Wed 12:32:09 PM 31.4631 -82.2081 146° Southeast 188 216 6,100  Level Jacksonville Center
Wed 12:33:09 PM 31.4211 -82.1767 147° Southeast 188 216 6,100  Level Jacksonville Center
Wed 12:34:09 PM 31.3750 -82.1431 148° Southeast 188 216 6,100  Level Jacksonville Center
Wed 12:35:09 PM 31.3269 -82.1142 153° Southeast 188 216 6,100  Level Jacksonville Center
Wed 12:36:09 PM 31.2828 -82.0881 153° Southeast 183 211 6,100  Level Jacksonville Center
Wed 12:37:09 PM 31.2408 -82.0592 150° Southeast 178 205 6,100  Level Jacksonville Center
Wed 12:38:09 PM 31.1947 -82.0328 154° Southeast 178 205 6,100  Level Jacksonville Center
Wed 12:39:09 PM 31.1550 -82.0064 150° Southeast 178 205 6,100 -51 Level Jacksonville Center
Wed 12:40:06 PM 31.1089 -81.9828 156° South 181 208 6,000  Descending Jacksonville Center
Wed 12:40:09 PM 31.1067 -81.9803 136° Southeast 178 205 6,100 95 Climbing Jacksonville Center
Wed 12:41:09 PM 31.0606 -81.9589 158° South 185 213 6,100 -53 Level Jacksonville Center
Wed 12:42:02 PM 31.0208 -81.9325 150° Southeast 181 208 6,000  Descending Jacksonville Center
Wed 12:42:09 PM 31.0144 -81.9350 199° South 185 213 6,100  Climbing Jacksonville Center
Wed 12:43:03 PM 30.9789 -81.9064 145° Southeast 184 212 6,000  Descending Jacksonville Center
Wed 12:43:09 PM 30.9706 -81.9039 166° South 185 213 6,100  Climbing Jacksonville Center
Wed 12:44:04 PM 30.9328 -81.8778 149° Southeast 185 213 6,000  Descending Jacksonville Center
Wed 12:44:09 PM 30.9264 -81.8756 163° South 185 213 6,100 92 Climbing Jacksonville Center
Wed 12:45:09 PM 30.8803 -81.8469 152° Southeast 180 207 6,100 -97 Level Jacksonville Center
Wed 12:45:11 PM 30.8803 -81.8444 90° East 185 213 6,000  Descending Jacksonville Center
Wed 12:46:09 PM 30.8361 -81.8158 151° Southeast 180 207 6,100  Climbing Jacksonville Center
Wed 12:46:12 PM 30.8342 -81.8136 136° Southeast 186 214 6,000  Descending Jacksonville Center
Wed 12:47:09 PM 30.7919 -81.7850 150° Southeast 180 207 6,100  Climbing Jacksonville Center
Wed 12:47:13 PM 30.7900 -81.7825 132° Southeast 186 214 6,000  Descending Jacksonville Center
Wed 12:48:09 PM 30.7481 -81.7542 150° Southeast 180 207 6,100  Climbing Jacksonville Center
Wed 12:48:14 PM 30.7436 -81.7517 154° Southeast 187 215 6,000  Descending Jacksonville Center
Wed 12:49:09 PM 30.7017 -81.7256 152° Southeast 180 207 6,100  Climbing Jacksonville Center
Wed 12:49:09 PM 30.7017 -81.7256 152° Southeast 187 215 6,000 -90 Descending Jacksonville Center
Wed 12:50:16 PM 30.6514 -81.6900 149° Southeast 185 213 6,000  Level Jacksonville Center
Wed 12:51:17 PM 30.6050 -81.6664 156° South 182 209 6,000  Level Jacksonville Center
Wed 12:52:12 PM 30.5631 -81.6406 152° Southeast 180 207 6,000  Level Jacksonville Center
Wed 12:53:13 PM 30.5192 -81.6169 155° Southeast 180 207 6,000  Level Jacksonville Center
Wed 12:54:20 PM 30.4686 -81.5864 152° Southeast 183 211 6,000  Level Jacksonville Center
Wed 12:55:21 PM 30.4183 -81.5606 156° South 181 208 6,000  Level Jacksonville Center
Wed 12:56:23 PM 30.3742 -81.5347 153° Southeast 181 208 6,000  Level Jacksonville Center
Wed 12:57:24 PM 30.3281 -81.5111 156° South 181 208 6,000  Level Jacksonville Center
Wed 12:58:19 PM 30.2858 -81.4903 157° South 176 203 6,000  Level Jacksonville Center
Wed 12:59:26 PM 30.2336 -81.4692 161° South 178 205 6,000  Level Jacksonville Center
Wed 01:00:26 PM 30.1853 -81.4531 164° South 178 205 6,000  Level Jacksonville Center
Wed 01:01:34 PM 30.1328 -81.4322 161° South 178 205 6,000  Level Jacksonville Center
Wed 01:02:34 PM 30.0867 -81.4114 159° South 182 209 6,000  Level Jacksonville Center
Wed 01:03:36 PM 30.0364 -81.3931 162° South 181 208 6,000  Level Jacksonville Center
Wed 01:04:36 PM 29.9903 -81.3744 161° South 182 209 6,000 63 Level Jacksonville Center
Wed 01:05:11 PM 29.9589 -81.3656 166° South 181 208 6,100 56 Climbing Jacksonville Center
Wed 01:06:24 PM 29.9003 -81.3472 165° South 181 208 6,100  Level Jacksonville Center
Wed 01:07:25 PM 29.8519 -81.3264 160° South 179 206 6,100  Level Jacksonville Center
Wed 01:08:26 PM 29.8058 -81.3081 161° South 179 206 6,100  Level Jacksonville Center
Wed 01:09:27 PM 29.7697 -81.2631 133° Southeast 196 226 6,100  Level Jacksonville Center
Wed 01:10:28 PM 29.7314 -81.2136 132° Southeast 195 224 6,100  Level Jacksonville Center
Wed 01:11:29 PM 29.6933 -81.1664 133° Southeast 195 224 6,100 -98 Level Jacksonville Center
Wed 01:12:30 PM 29.6511 -81.1289 142° Southeast 190 219 5,900 -492 Descending Jacksonville Center
Wed 01:13:31 PM 29.6047 -81.0986 150° Southeast 195 224 5,100 -885 Descending Jacksonville Center
Wed 01:14:32 PM 29.5542 -81.0686 153° Southeast 206 237 4,100 -541 Descending Jacksonville Center
Wed 01:15:33 PM 29.5036 -81.0456 158° South 181 208 4,000 -49 Descending Jacksonville Center
Wed 01:16:34 PM 29.4594 -81.0275 160° South 164 189 4,000 -393 Level Jacksonville Center
Wed 01:17:35 PM 29.4133 -81.0044 156° South 174 200 3,200 -492 Descending Jacksonville Center
Wed 01:18:36 PM 29.3692 -80.9886 163° South 176 203 3,000 -98 Descending Jacksonville Center
Wed 01:19:37 PM 29.3253 -80.9706 160° South 161 185 3,000  Level Jacksonville Center
Wed 01:20:44 PM 29.2769 -80.9522 162° South 157 181 3,000 -197 Level Jacksonville Center
Wed 01:21:39 PM 29.2369 -80.9389 164° South 159 183 2,600 -443 Descending Jacksonville Center
Wed 01:22:46 PM 29.1908 -80.9231 163° South 159 183 2,100 -422 Descending Jacksonville Center
Wed 01:23:47 PM 29.1489 -80.9025 157° South 158 182 1,700 -393 Descending Jacksonville Center
Wed 01:24:48 PM 29.1028 -80.8892 166° South 161 185 1,300 -259 Descending Jacksonville Center
Wed 01:25:43 PM 29.0672 -80.8922 184° South 140 161 1,200 -313 Descending Jacksonville Center
Wed 01:26:43 PM 29.0447 -80.9189 226° Southwest 109 125 700 -500 Descending Jacksonville Center
Wed 01:28:00 PM 29.0557 -80.9489 293° West  Level Estimated
Wed 01:35:00 PM 29.0557 -80.9489 33° Northeast  Level Estimated
Wed 01:36:00 PM 29.0557 -80.9489 33° Northeast  Level Estimated
Wed 01:37:00 PM 29.0557 -80.9489 33° Northeast  Level Estimated

Login

Don't have an account? Register now (free) for customized features, flight alerts, and more!